Time;durP1;ratioP1;P1;durP2;ratioP2;P2;SDS_P1;SDS_P2;PMS_P1;PMS_P2;Temp;Humidity;BMP_temperature;BMP_pressure;BME280_temperature;BME280_humidity;BME280_pressure;Samples;Min_cycle;Max_cycle;Signal;HPM_P1;HPM_P2
2022/05/20 07:24:06;;;;;;;;;;;;;;;;;;;;;
2022/05/20 07:26:41;;;;;;;12.07;10.88;;;16.20;99.90;;;;;;4903419;29;20053;-80
2022/05/20 07:30:12;;;;;;;13.35;10.90;;;16.30;99.90;;;;;;4888895;29;20416;-80
2022/05/20 07:32:55;;;;;;;11.68;10.00;;;16.30;99.90;;;;;;4879050;29;20085;-81
2022/05/20 07:36:33;;;;;;;12.18;10.88;;;16.30;99.90;;;;;;4889230;29;20051;-82
2022/05/20 07:39:30;;;;;;;10.88;9.85;;;16.40;99.90;;;;;;4899278;29;20330;-79
2022/05/20 07:42:15;;;;;;;11.07;9.63;;;16.50;99.90;;;;;;4902905;29;20037;-78
2022/05/20 07:50:32;;;;;;;9.98;8.98;;;16.90;99.90;;;;;;4935483;29;20066;-80
2022/05/20 07:56:49;;;;;;;10.32;9.30;;;17.20;99.90;;;;;;4934008;29;20051;-79
2022/05/20 08:03:03;;;;;;;;;;;;;;;;;;;;;
2022/05/20 08:05:42;;;;;;;10.18;9.18;;;18.90;99.90;;;;;;4937718;29;20078;-80
2022/05/20 08:08:33;;;;;;;9.60;8.57;;;19.30;99.90;;;;;;4916236;29;20054;-79
2022/05/20 08:11:24;;;;;;;10.45;8.82;;;19.60;99.90;;;;;;4920546;29;20083;-80
2022/05/20 08:14:31;;;;;;;9.27;8.38;;;19.40;99.90;;;;;;4922200;29;20036;-80
2022/05/20 08:18:17;;;;;;;9.55;8.65;;;19.30;99.90;;;;;;4948346;29;20530;-80
2022/05/20 08:25:54;;;;;;;9.60;8.73;;;19.10;99.90;;;;;;4906603;29;20505;-80
2022/05/20 08:28:48;;;;;;;9.45;8.55;;;18.80;99.90;;;;;;4941475;29;20076;-80
2022/05/20 08:35:10;;;;;;;9.65;8.13;;;19.00;99.90;;;;;;4940746;29;20055;-80
2022/05/20 08:38:31;;;;;;;;;;;;;;;;;;;;;
2022/05/20 08:42:01;;;;;;;8.20;7.40;;;20.90;99.90;;;;;;4943218;29;20054;-80
2022/05/20 08:44:55;;;;;;;;;;;;;;;;;;;;;
2022/05/20 08:48:21;;;;;;;7.57;6.88;;;21.40;99.90;;;;;;4941345;29;20083;-80
2022/05/20 08:51:24;;;;;;;7.47;6.78;;;21.90;99.90;;;;;;4952013;29;20055;-80
2022/05/20 08:54:12;;;;;;;7.82;6.82;;;22.40;99.90;;;;;;4942825;29;20047;-80
2022/05/20 08:56:55;;;;;;;8.43;7.40;;;22.50;99.90;;;;;;4956621;29;20055;-80
2022/05/20 08:59:35;;;;;;;8.00;6.15;;;22.60;99.90;;;;;;4939420;29;20055;-80
2022/05/20 09:03:06;;;;;;;6.72;5.93;;;22.80;99.90;;;;;;4939019;29;20056;-80
2022/05/20 09:06:19;;;;;;;;;;;;;;;;;;;;;
2022/05/20 09:09:28;;;;;;;6.53;5.35;;;23.20;96.10;;;;;;4937954;29;20135;-80
2022/05/20 09:12:41;;;;;;;6.72;5.85;;;23.50;99.90;;;;;;4935945;29;20047;-80
2022/05/20 09:22:28;;;;;;;6.68;6.00;;;23.40;99.90;;;;;;4935320;29;20048;-80
2022/05/20 09:25:16;;;;;;;6.93;5.32;;;23.40;99.30;;;;;;4918686;29;20396;-80
2022/05/20 09:28:13;;;;;;;5.95;5.40;;;23.50;99.90;;;;;;4938086;29;20479;-80
2022/05/20 09:31:30;;;;;;;10.80;5.47;;;23.50;99.90;;;;;;4900804;29;20055;-80
2022/05/20 09:34:26;;;;;;;6.43;5.82;;;23.50;99.90;;;;;;4902312;29;20048;-80
2022/05/20 09:37:16;;;;;;;6.35;5.72;;;23.20;99.90;;;;;;4908285;29;20499;-80
2022/05/20 09:39:47;;;;;;;7.05;5.93;;;23.00;99.90;;;;;;4934765;29;20060;-80
2022/05/20 09:42:18;;;;;;;7.45;5.63;;;22.50;99.90;;;;;;4919693;29;20530;-79
2022/05/20 09:44:51;;;;;;;7.95;5.88;;;22.10;99.90;;;;;;4935131;29;20035;-79
2022/05/20 09:47:36;;;;;;;6.72;6.03;;;21.80;99.90;;;;;;4920127;29;20048;-79
2022/05/20 09:50:06;;;;;;;6.53;5.93;;;21.40;99.90;;;;;;4952137;29;20039;-80
2022/05/20 09:53:03;;;;;;;6.25;5.13;;;21.00;99.90;;;;;;4936383;29;20067;-80
2022/05/20 09:55:36;;;;;;;6.10;4.95;;;21.00;99.90;;;;;;4936429;29;20043;-80
2022/05/20 09:58:21;;;;;;;6.25;5.65;;;20.90;99.90;;;;;;4951386;29;20082;-80
2022/05/20 10:00:55;;;;;;;7.35;5.68;;;20.90;99.90;;;;;;4937358;29;20044;-80
2022/05/20 10:03:25;;;;;;;;;;;21.00;99.90;;;;;;4937975;29;20061;-80
2022/05/20 10:06:15;;;;;;;6.45;5.50;;;21.10;96.00;;;;;;4935857;29;19918;-80
2022/05/20 10:09:21;;;;;;;6.15;5.32;;;21.30;99.90;;;;;;4935957;29;20048;-80
2022/05/20 10:12:06;;;;;;;6.85;6.22;;;21.60;99.90;;;;;;4952525;29;20086;-80
2022/05/20 10:14:51;;;;;;;7.10;6.40;;;21.90;99.90;;;;;;4937561;29;20054;-80
2022/05/20 10:17:40;;;;;;;7.95;6.15;;;22.10;99.90;;;;;;4936786;29;20050;-80
2022/05/20 10:20:27;;;;;;;7.60;6.90;;;22.10;99.90;;;;;;4932689;29;20086;-80
2022/05/20 10:23:21;;;;;;;7.25;6.22;;;22.30;99.90;;;;;;4921302;29;20044;-80
2022/05/20 10:26:15;;;;;;;6.50;5.90;;;22.30;99.90;;;;;;4936487;29;20035;-79
2022/05/20 10:34:34;;;;;;;6.20;5.05;;;22.20;96.60;;;;;;4939088;29;20047;-79
2022/05/20 10:37:17;;;;;;;7.28;5.60;;;22.30;99.90;;;;;;4921240;29;20050;-79
2022/05/20 10:40:01;;;;;;;5.55;5.05;;;22.50;97.70;;;;;;4921812;29;20047;-79
2022/05/20 10:42:39;;;;;;;6.05;5.07;;;22.50;95.30;;;;;;4921501;29;20105;-80
2022/05/20 10:48:48;;;;;;;5.20;4.50;;;22.60;97.10;;;;;;4936455;29;20050;-79
2022/05/20 10:51:29;;;;;;;7.45;5.55;;;22.50;93.40;;;;;;4937796;29;20055;-79
2022/05/20 10:54:31;;;;;;;6.38;5.63;;;22.60;93.90;;;;;;4937396;29;20047;-79
2022/05/20 10:57:34;;;;;;;6.13;5.30;;;22.70;86.20;;;;;;4925531;29;20525;-79
2022/05/20 11:00:10;;;;;;;7.03;5.65;;;22.80;83.60;;;;;;4925580;29;20039;-79
2022/05/20 11:02:50;;;;;;;5.65;5.05;;;22.90;89.10;;;;;;4941753;29;20412;-79
2022/05/20 11:05:29;;;;;;;6.05;5.45;;;23.20;87.20;;;;;;4935013;28;20103;-79
2022/05/20 11:08:13;;;;;;;5.88;5.28;;;23.50;85.50;;;;;;4951879;28;20044;-79
2022/05/20 11:10:44;;;;;;;6.38;5.75;;;23.50;85.10;;;;;;4931848;29;20134;-80
2022/05/20 11:13:47;;;;;;;6.55;5.90;;;23.50;89.10;;;;;;4946938;29;20050;-79
2022/05/20 11:16:32;;;;;;;;;;;24.00;86.20;;;;;;4946837;29;20050;-79
2022/05/20 11:19:40;;;;;;;4.82;4.43;;;24.50;71.20;;;;;;4929885;29;20298;-80
2022/05/20 11:22:21;;;;;;;5.38;4.88;;;25.10;77.50;;;;;;4908180;29;20057;-79
2022/05/20 11:25:42;;;;;;;4.78;4.25;;;25.60;73.00;;;;;;4941505;29;20047;-80
2022/05/20 11:28:28;;;;;;;6.05;4.93;;;25.50;67.20;;;;;;4910801;29;20067;-80
2022/05/20 11:31:45;;;;;;;5.45;4.45;;;25.30;64.80;;;;;;4926133;29;20051;-79
2022/05/20 11:34:32;;;;;;;4.88;4.28;;;25.00;65.10;;;;;;4904972;29;20048;-79
2022/05/20 11:37:07;;;;;;;5.03;4.50;;;24.80;72.30;;;;;;4929574;29;20581;-80
2022/05/20 11:40:11;;;;;;;5.85;4.93;;;24.50;70.20;;;;;;4943465;29;20048;-79
2022/05/20 11:42:49;;;;;;;6.03;5.28;;;24.40;76.70;;;;;;4958126;29;20039;-79
2022/05/20 11:45:35;;;;;;;5.20;4.70;;;24.10;66.00;;;;;;4943720;29;20073;-79
2022/05/20 11:48:20;;;;;;;5.70;5.20;;;23.60;69.80;;;;;;4928593;29;20047;-79
2022/05/20 11:51:17;;;;;;;5.60;4.68;;;23.30;74.30;;;;;;4944039;29;20122;-79
2022/05/20 11:54:26;;;;;;;6.72;5.10;;;23.10;71.30;;;;;;4926571;29;20062;-78
2022/05/20 11:57:04;;;;;;;5.22;4.80;;;22.80;72.50;;;;;;4911715;29;20043;-78
2022/05/20 11:59:40;;;;;;;5.45;4.53;;;22.50;73.50;;;;;;4936020;29;20056;-79
2022/05/20 12:02:17;;;;;;;5.28;4.78;;;22.30;76.30;;;;;;4936515;29;20044;-79
2022/05/20 12:04:44;;;;;;;5.25;4.38;;;22.10;81.80;;;;;;4922978;29;20585;-79
2022/05/20 12:07:16;;;;;;;5.57;4.82;;;22.20;77.80;;;;;;4923396;29;20040;-78
2022/05/20 12:09:50;;;;;;;5.15;4.63;;;22.10;79.40;;;;;;4921740;29;20075;-78
2022/05/20 12:12:26;;;;;;;5.18;4.68;;;22.10;74.40;;;;;;4953526;29;20044;-79
2022/05/20 12:15:13;;;;;;;5.85;4.50;;;22.00;72.20;;;;;;4922457;29;20051;-79
2022/05/20 12:17:42;;;;;;;6.05;5.35;;;21.90;73.30;;;;;;4936869;29;20125;-78
2022/05/20 12:25:58;;;;;;;5.07;4.53;;;21.70;74.10;;;;;;4936885;29;20043;-79
2022/05/20 12:28:33;;;;;;;5.65;4.60;;;21.80;70.00;;;;;;4937333;29;20132;-79
2022/05/20 12:31:36;;;;;;;5.35;4.78;;;21.80;72.20;;;;;;4936417;29;20086;-79
2022/05/20 12:34:10;;;;;;;5.15;4.55;;;21.70;67.50;;;;;;4937268;29;20048;-79
2022/05/20 12:36:37;;;;;;;5.45;4.78;;;21.60;69.80;;;;;;4937488;29;20082;-79
2022/05/20 12:39:15;;;;;;;5.85;4.55;;;21.50;70.40;;;;;;4937413;29;20044;-79
2022/05/20 12:41:56;;;;;;;5.95;4.72;;;21.50;73.50;;;;;;4937168;29;20102;-79
2022/05/20 12:44:25;;;;;;;7.28;5.50;;;21.50;72.00;;;;;;4938207;29;20035;-78
2022/05/20 12:47:13;;;;;;;6.57;5.68;;;21.40;76.80;;;;;;4937531;29;20087;-78
2022/05/20 12:49:48;;;;;;;7.85;6.72;;;21.40;77.40;;;;;;4922130;29;20131;-79
2022/05/20 12:52:28;;;;;;;8.27;7.13;;;21.30;76.90;;;;;;4936861;29;20079;-79
2022/05/20 12:55:14;;;;;;;8.70;7.53;;;21.10;75.90;;;;;;4921424;29;20062;-79
2022/05/20 12:57:53;;;;;;;7.85;7.07;;;20.90;80.70;;;;;;4920915;29;20410;-79
2022/05/20 13:00:26;;;;;;;7.38;6.68;;;20.70;76.40;;;;;;4921323;29;20050;-79
2022/05/20 13:03:14;;;;;;;8.07;7.28;;;20.40;83.30;;;;;;4938941;29;20094;-78
2022/05/20 13:05:52;;;;;;;8.00;7.20;;;20.30;85.40;;;;;;4900975;29;20054;-79
2022/05/20 13:08:21;;;;;;;8.15;7.45;;;20.10;85.50;;;;;;4919732;29;20047;-79
2022/05/20 13:10:53;;;;;;;7.78;6.78;;;19.90;83.50;;;;;;4920194;29;20144;-79
2022/05/20 13:13:23;;;;;;;8.45;7.00;;;19.70;82.80;;;;;;4934947;29;20054;-78
2022/05/20 13:15:53;;;;;;;8.30;7.05;;;19.50;80.30;;;;;;4919133;29;20130;-78
2022/05/20 13:18:34;;;;;;;6.80;6.10;;;19.40;83.80;;;;;;4934512;29;20051;-78
2022/05/20 13:21:16;;;;;;;6.65;5.95;;;19.30;82.60;;;;;;4919172;29;20134;-78
2022/05/20 13:23:50;;;;;;;6.85;6.15;;;19.10;83.80;;;;;;4919592;29;20043;-79
2022/05/20 13:26:41;;;;;;;8.35;6.82;;;19.00;86.70;;;;;;4919976;29;20427;-80
2022/05/20 13:29:14;;;;;;;7.70;6.90;;;18.80;91.80;;;;;;4915761;29;20450;-79
2022/05/20 13:31:41;;;;;;;8.02;7.07;;;18.50;93.80;;;;;;4920742;29;20062;-79
2022/05/20 13:34:12;;;;;;;8.23;7.40;;;18.20;96.50;;;;;;4935107;29;20051;-79
2022/05/20 13:37:05;;;;;;;11.80;8.57;;;17.80;99.90;;;;;;4936769;29;20058;-79
2022/05/20 13:39:55;;;;;;;10.88;8.85;;;17.50;99.90;;;;;;4934842;29;20044;-79
2022/05/20 13:43:03;;;;;;;11.88;10.13;;;17.20;99.90;;;;;;4949416;29;20240;-79
2022/05/20 13:52:00;;;;;;;12.15;10.23;;;16.40;99.90;;;;;;4936557;29;20400;-80
2022/05/20 13:54:26;;;;;;;15.93;11.57;;;16.20;99.90;;;;;;4964945;29;20053;-79
2022/05/20 13:56:53;;;;;;;14.93;12.27;;;16.10;99.90;;;;;;4922241;29;20044;-79
2022/05/20 13:59:33;;;;;;;16.80;13.18;;;16.00;99.90;;;;;;4938985;29;20040;-81
2022/05/20 14:02:33;;;;;;;16.00;12.90;;;15.80;99.90;;;;;;4940744;29;20491;-81
2022/05/20 14:05:25;;;;;;;16.08;12.50;;;15.70;99.90;;;;;;4924503;29;20046;-81
2022/05/20 14:08:24;;;;;;;14.48;12.13;;;15.70;99.90;;;;;;4938339;29;20122;-81
2022/05/20 14:11:16;;;;;;;16.80;12.65;;;15.60;99.90;;;;;;4918710;29;20491;-81
2022/05/20 14:13:47;;;;;;;16.35;11.63;;;15.50;99.90;;;;;;4909273;29;20062;-81
2022/05/20 14:16:15;;;;;;;15.45;12.93;;;15.50;99.90;;;;;;4924483;29;20103;-80
2022/05/20 14:19:01;;;;;;;15.45;13.15;;;15.40;99.90;;;;;;4922217;29;20044;-80
2022/05/20 14:21:32;;;;;;;14.65;12.73;;;15.40;99.90;;;;;;4924103;29;20402;-81
2022/05/20 14:24:16;;;;;;;18.90;14.48;;;15.40;99.90;;;;;;4922186;29;20111;-81
2022/05/20 14:27:00;;;;;;;17.98;13.75;;;15.30;99.90;;;;;;4920546;29;20048;-80
2022/05/20 14:29:40;;;;;;;17.25;12.48;;;15.30;99.90;;;;;;4936031;29;20040;-81
2022/05/20 14:32:14;;;;;;;26.40;12.43;;;15.30;99.90;;;;;;4924495;29;20047;-81
2022/05/20 14:34:54;;;;;;;18.27;13.68;;;15.30;99.90;;;;;;4924767;29;20047;-80
2022/05/20 14:37:27;;;;;;;19.48;14.10;;;15.30;99.90;;;;;;4927170;29;20051;-81
2022/05/20 14:40:03;;;;;;;16.17;13.15;;;15.20;99.90;;;;;;4941379;29;20055;-81
2022/05/20 14:42:40;;;;;;;16.42;12.40;;;15.10;99.90;;;;;;4924685;29;20647;-81
2022/05/20 14:45:20;;;;;;;17.80;12.63;;;14.90;99.90;;;;;;4923941;29;20044;-81
2022/05/20 14:48:06;;;;;;;18.75;12.35;;;14.80;99.90;;;;;;4922912;29;20060;-81
2022/05/20 14:50:33;;;;;;;17.73;12.32;;;14.80;99.90;;;;;;4923534;29;20047;-81
2022/05/20 14:53:09;;;;;;;19.25;13.57;;;14.60;99.90;;;;;;4939315;29;20036;-82
2022/05/20 14:55:42;;;;;;;18.08;13.40;;;14.60;99.90;;;;;;4922703;29;20044;-81
2022/05/20 14:58:20;;;;;;;21.73;13.75;;;14.60;99.90;;;;;;4922880;29;20399;-81
2022/05/20 15:01:13;;;;;;;18.40;12.75;;;14.50;99.90;;;;;;4922321;29;20134;-81
2022/05/20 15:03:45;;;;;;;26.63;12.52;;;14.40;99.90;;;;;;4922172;29;20048;-81
2022/05/20 15:06:42;;;;;;;18.60;12.77;;;14.50;99.90;;;;;;4938312;29;20044;-81
2022/05/20 15:10:13;;;;;;;19.20;12.93;;;14.40;99.90;;;;;;4935509;29;20152;-82
2022/05/20 15:13:48;;;;;;;;;;;;;;;;;;;;;
2022/05/20 15:19:27;;;;;;;15.18;12.90;;;14.00;99.90;;;;;;5153045;23;20114;-82
2022/05/20 15:25:32;;;;;;;14.02;12.15;;;13.70;99.90;;;;;;4925623;29;20399;-81
2022/05/20 15:36:48;;;;;;;17.88;12.68;;;13.30;99.90;;;;;;4943391;23;20082;-79
2022/05/20 15:39:26;;;;;;;15.05;12.00;;;13.20;99.90;;;;;;4936096;29;20044;-79
2022/05/20 15:42:02;;;;;;;16.45;11.68;;;13.20;99.90;;;;;;4936512;29;20039;-80
2022/05/20 15:44:34;;;;;;;18.13;11.50;;;13.10;99.90;;;;;;4922651;29;20506;-79
2022/05/20 15:47:11;;;;;;;26.63;12.30;;;13.10;99.90;;;;;;4936607;29;20406;-78
2022/05/20 15:49:45;;;;;;;36.20;12.40;;;13.00;99.90;;;;;;4920645;29;20042;-78
2022/05/20 15:52:26;;;;;;;15.73;12.40;;;13.00;99.90;;;;;;4920833;29;20433;-78
2022/05/20 15:55:05;;;;;;;17.60;12.52;;;13.00;99.90;;;;;;4921361;29;20131;-79
2022/05/20 15:57:45;;;;;;;19.80;12.05;;;13.00;99.90;;;;;;4906445;29;20427;-79
2022/05/20 16:00:24;;;;;;;19.73;12.60;;;12.90;99.90;;;;;;4921616;29;20051;-78
2022/05/20 16:02:53;;;;;;;18.17;13.32;;;12.90;99.90;;;;;;4920122;29;20055;-78
2022/05/20 16:05:27;;;;;;;22.75;13.60;;;12.80;99.90;;;;;;4919667;29;20467;-78
2022/05/20 16:08:12;;;;;;;23.10;13.30;;;12.90;99.90;;;;;;4919820;29;20055;-78
2022/05/20 16:10:53;;;;;;;18.77;13.02;;;12.80;99.90;;;;;;4920109;29;20507;-78
2022/05/20 16:13:27;;;;;;;30.50;13.20;;;12.90;99.90;;;;;;4919564;29;20091;-79
2022/05/20 16:15:54;;;;;;;20.10;13.68;;;12.80;99.90;;;;;;4919016;29;20059;-78
2022/05/20 16:18:23;;;;;;;19.33;13.23;;;12.80;99.90;;;;;;4919255;29;20085;-78
2022/05/20 16:21:14;;;;;;;27.75;13.57;;;12.80;99.90;;;;;;4934968;29;20058;-79
2022/05/20 16:23:49;;;;;;;27.95;13.23;;;12.70;99.90;;;;;;4919482;29;20478;-79
2022/05/20 16:26:31;;;;;;;27.58;12.77;;;12.80;99.90;;;;;;4919780;29;20130;-78
2022/05/20 16:29:09;;;;;;;23.90;13.23;;;12.80;99.90;;;;;;4905704;29;20044;-77
2022/05/20 16:31:36;;;;;;;19.40;13.18;;;12.80;99.90;;;;;;4918698;29;20043;-78
2022/05/20 16:34:08;;;;;;;29.17;12.70;;;12.70;99.90;;;;;;4919219;29;20134;-78
2022/05/20 16:36:37;;;;;;;32.05;13.60;;;12.70;99.90;;;;;;4919192;29;20487;-77
2022/05/20 16:39:08;;;;;;;31.55;12.77;;;12.60;99.90;;;;;;4919503;29;20039;-78
2022/05/20 16:41:41;;;;;;;30.08;12.52;;;12.50;99.90;;;;;;4918845;29;20095;-78
2022/05/20 16:44:10;;;;;;;25.05;12.70;;;12.50;99.90;;;;;;4918787;29;20039;-78
2022/05/20 16:46:40;;;;;;;25.38;13.13;;;12.60;99.90;;;;;;4917716;29;20558;-79
2022/05/20 16:49:25;;;;;;;25.77;13.15;;;12.50;99.90;;;;;;4917870;29;20039;-78
2022/05/20 16:52:00;;;;;;;24.70;12.98;;;12.50;99.90;;;;;;4934322;29;20087;-78
2022/05/20 16:54:34;;;;;;;24.40;13.48;;;12.50;99.90;;;;;;4917705;29;20052;-78
2022/05/20 17:02:56;;;;;;;17.17;13.05;;;12.60;99.90;;;;;;4934399;29;20423;-79
2022/05/20 17:05:41;;;;;;;18.10;13.20;;;12.60;99.90;;;;;;4935246;29;20499;-79
2022/05/20 17:08:28;;;;;;;17.35;11.88;;;12.60;99.90;;;;;;4918411;29;20130;-78
2022/05/20 17:11:01;;;;;;;15.00;11.57;;;12.50;99.90;;;;;;4919615;29;20047;-79
2022/05/20 17:13:37;;;;;;;15.38;11.90;;;12.50;99.90;;;;;;4918625;29;20048;-78
2022/05/20 17:16:08;;;;;;;18.77;11.63;;;12.40;99.90;;;;;;4919912;29;20069;-78
2022/05/20 17:18:41;;;;;;;20.20;13.15;;;12.40;99.90;;;;;;4918751;29;20087;-79
2022/05/20 17:27:01;;;;;;;29.92;12.27;;;12.50;99.90;;;;;;4934148;29;20043;-78
2022/05/20 17:29:35;;;;;;;22.33;12.00;;;12.60;99.90;;;;;;4918481;29;20127;-78
2022/05/20 17:32:04;;;;;;;20.23;13.05;;;12.70;99.90;;;;;;4918353;29;20047;-79
2022/05/20 17:34:32;;;;;;;43.72;14.18;;;12.80;99.90;;;;;;4918079;29;20062;-79
2022/05/20 17:37:08;;;;;;;26.13;12.98;;;12.80;99.90;;;;;;4918379;29;20048;-79
2022/05/20 17:39:40;;;;;;;23.65;13.38;;;13.00;99.90;;;;;;4918069;29;20051;-78
2022/05/20 17:42:11;;;;;;;25.30;13.02;;;13.10;99.90;;;;;;4918176;29;20040;-79
2022/05/20 17:44:41;;;;;;;24.60;13.82;;;13.20;99.90;;;;;;4917852;29;20448;-79
2022/05/20 17:47:13;;;;;;;18.88;13.65;;;13.40;99.90;;;;;;4917453;29;20044;-79
2022/05/20 17:49:45;;;;;;;21.77;12.38;;;13.40;99.90;;;;;;4917532;29;20066;-79
2022/05/20 17:52:23;;;;;;;17.40;11.98;;;13.40;99.90;;;;;;4918398;29;20042;-79
2022/05/20 17:54:52;;;;;;;16.35;11.02;;;13.30;99.90;;;;;;4917961;29;20529;-79
2022/05/20 17:57:25;;;;;;;13.95;9.73;;;13.20;99.90;;;;;;4917758;29;20106;-79
2022/05/20 17:59:57;;;;;;;16.73;9.23;;;13.20;99.90;;;;;;4917171;29;20054;-79
2022/05/20 18:02:27;;;;;;;14.32;9.65;;;13.10;99.90;;;;;;4917316;29;20048;-79
2022/05/20 18:05:01;;;;;;;14.90;9.85;;;13.00;99.90;;;;;;4918741;29;20039;-80
2022/05/20 18:07:30;;;;;;;19.05;8.80;;;13.00;99.90;;;;;;4921815;29;20039;-79
2022/05/20 18:10:09;;;;;;;12.32;9.05;;;13.00;99.90;;;;;;4920917;29;20039;-79
2022/05/20 18:12:41;;;;;;;11.85;9.18;;;12.90;99.90;;;;;;4920215;29;20059;-79
2022/05/20 18:15:12;;;;;;;13.82;9.02;;;13.00;99.90;;;;;;4921323;29;20071;-79
2022/05/20 18:18:01;;;;;;;13.65;8.93;;;12.90;99.90;;;;;;4920695;29;20138;-80
2022/05/20 18:20:31;;;;;;;16.35;8.90;;;12.90;99.90;;;;;;4921162;29;20043;-79
2022/05/20 18:23:08;;;;;;;14.50;9.38;;;12.90;99.90;;;;;;4921110;29;20125;-79
2022/05/20 18:25:47;;;;;;;13.57;9.32;;;12.90;99.90;;;;;;4921400;29;20036;-79
2022/05/20 18:28:19;;;;;;;11.27;8.90;;;12.90;99.90;;;;;;4920804;29;20406;-79
2022/05/20 18:30:49;;;;;;;10.52;8.48;;;12.80;99.90;;;;;;4920764;29;20052;-79
2022/05/20 18:33:21;;;;;;;14.05;7.93;;;12.80;99.90;;;;;;4920667;29;20047;-79
2022/05/20 18:41:25;;;;;;;13.85;7.10;;;12.70;99.90;;;;;;4936424;29;20313;-79
2022/05/20 18:43:57;;;;;;;11.48;6.72;;;12.70;99.90;;;;;;4920834;29;20111;-79
2022/05/20 18:46:23;;;;;;;9.48;6.88;;;12.60;99.90;;;;;;4920476;29;20127;-79
2022/05/20 18:48:55;;;;;;;11.02;7.50;;;12.60;99.90;;;;;;4920466;29;20455;-78
2022/05/20 18:51:22;;;;;;;14.07;7.95;;;12.60;99.90;;;;;;4920754;29;20130;-79
2022/05/20 18:53:49;;;;;;;14.00;9.45;;;12.60;99.90;;;;;;4929919;29;20053;-80
2022/05/20 18:56:26;;;;;;;12.90;8.48;;;12.60;99.90;;;;;;4920597;29;20499;-79
2022/05/20 18:58:56;;;;;;;12.43;8.73;;;12.50;99.90;;;;;;4920257;29;20043;-78
2022/05/20 19:01:21;;;;;;;13.45;8.80;;;12.50;99.90;;;;;;4920557;29;20110;-78
2022/05/20 19:03:50;;;;;;;20.20;8.60;;;12.50;99.90;;;;;;4920614;29;20099;-79
2022/05/20 19:06:20;;;;;;;15.00;9.18;;;12.40;99.90;;;;;;4935482;29;20142;-78
2022/05/20 19:08:50;;;;;;;18.58;8.73;;;12.50;99.90;;;;;;4919612;29;20525;-79
2022/05/20 19:11:28;;;;;;;17.70;8.90;;;12.40;99.90;;;;;;4920376;29;20123;-79
2022/05/20 19:13:55;;;;;;;17.58;8.65;;;12.50;99.90;;;;;;4919800;29;20043;-78
2022/05/20 19:16:24;;;;;;;15.20;9.00;;;12.40;99.90;;;;;;4918919;29;20103;-79
2022/05/20 19:18:54;;;;;;;12.82;8.80;;;12.40;99.90;;;;;;4920963;29;20039;-79
2022/05/20 19:21:27;;;;;;;26.08;8.77;;;12.40;99.90;;;;;;4920337;29;20043;-78
2022/05/20 19:23:59;;;;;;;18.73;9.27;;;12.30;99.90;;;;;;4919669;29;20143;-79
2022/05/20 19:26:29;;;;;;;22.65;10.07;;;12.40;99.90;;;;;;4920075;29;20091;-79
2022/05/20 19:28:58;;;;;;;24.90;9.07;;;12.30;99.90;;;;;;4919641;29;20042;-78
2022/05/20 19:31:28;;;;;;;25.52;9.65;;;12.30;99.90;;;;;;4919190;29;20131;-78
2022/05/20 19:33:54;;;;;;;20.20;9.43;;;12.40;99.90;;;;;;4919757;29;20043;-80
2022/05/20 19:36:24;;;;;;;14.80;6.00;;;12.40;99.90;;;;;;4919018;29;20044;-79
2022/05/20 19:38:51;;;;;;;9.65;4.15;;;12.40;99.90;;;;;;4919489;29;20368;-78
2022/05/20 19:41:18;;;;;;;6.43;3.17;;;12.30;99.90;;;;;;4919397;29;20084;-78
2022/05/20 19:43:45;;;;;;;7.38;3.60;;;12.20;99.90;;;;;;4919271;29;20127;-79
2022/05/20 19:46:12;;;;;;;6.82;3.55;;;12.20;99.90;;;;;;4918876;29;20097;-78
2022/05/20 19:48:41;;;;;;;8.15;3.53;;;12.20;99.90;;;;;;4919139;29;20435;-79
2022/05/20 19:51:10;;;;;;;8.43;3.13;;;12.10;99.90;;;;;;4919492;29;20047;-79
2022/05/20 19:53:40;;;;;;;13.05;3.38;;;12.00;99.90;;;;;;4919484;29;20047;-78
2022/05/20 19:56:10;;;;;;;11.73;3.83;;;12.10;99.90;;;;;;4919174;29;20103;-78
2022/05/20 20:01:20;;;;;;;10.57;3.50;;;11.90;99.90;;;;;;4934917;29;20512;-78
2022/05/20 20:03:49;;;;;;;4.97;3.33;;;11.90;99.90;;;;;;4919141;29;20139;-78
2022/05/20 20:06:16;;;;;;;8.18;3.50;;;11.80;99.90;;;;;;4918964;29;20039;-78
2022/05/20 20:08:42;;;;;;;6.93;3.90;;;11.80;99.90;;;;;;4918557;29;20078;-78
2022/05/20 20:11:09;;;;;;;4.40;3.75;;;11.90;99.90;;;;;;4918956;29;20055;-78
2022/05/20 20:13:35;;;;;;;6.93;4.10;;;11.80;99.90;;;;;;4918987;29;20163;-79
2022/05/20 20:16:06;;;;;;;11.02;4.40;;;11.80;99.90;;;;;;4921222;29;20051;-79
2022/05/20 20:18:36;;;;;;;8.88;4.32;;;11.70;99.90;;;;;;4921174;29;20047;-80
2022/05/20 20:26:39;;;;;;;9.80;4.88;;;11.70;99.90;;;;;;4936832;29;20121;-79
2022/05/20 20:29:07;;;;;;;15.18;5.32;;;11.70;99.90;;;;;;4920336;29;20047;-80
2022/05/20 20:31:36;;;;;;;12.15;5.45;;;11.80;99.90;;;;;;4921031;29;20578;-79
2022/05/20 20:34:02;;;;;;;9.82;5.90;;;11.80;99.90;;;;;;4920959;29;20066;-79
2022/05/20 20:36:30;;;;;;;11.02;5.40;;;11.70;99.90;;;;;;4921139;29;20082;-79
2022/05/20 20:39:00;;;;;;;9.02;5.45;;;11.80;99.90;;;;;;4920821;29;20042;-79
2022/05/20 20:41:37;;;;;;;5.85;5.25;;;11.80;99.90;;;;;;4921100;29;20036;-80
2022/05/20 20:44:07;;;;;;;11.05;5.10;;;11.70;99.90;;;;;;4921243;29;20055;-79
2022/05/20 20:46:37;;;;;;;9.30;5.30;;;11.70;99.90;;;;;;4921154;29;20491;-79
2022/05/20 20:49:04;;;;;;;6.35;4.75;;;11.80;99.90;;;;;;4921167;29;20042;-79
2022/05/20 20:51:37;;;;;;;9.50;5.40;;;11.70;99.90;;;;;;4921733;29;20491;-79
2022/05/20 20:54:04;;;;;;;10.68;5.68;;;11.70;99.90;;;;;;4921810;29;20047;-79
2022/05/20 20:56:31;;;;;;;8.38;5.95;;;11.80;99.90;;;;;;4922128;29;20054;-79
2022/05/20 20:59:01;;;;;;;8.88;5.97;;;11.70;99.90;;;;;;4921533;29;20044;-79
2022/05/20 21:01:29;;;;;;;11.93;6.40;;;11.70;99.90;;;;;;4922036;29;20047;-80
2022/05/20 21:03:59;;;;;;;17.02;6.65;;;11.80;99.90;;;;;;4921792;29;20111;-80
2022/05/20 21:06:30;;;;;;;9.95;6.60;;;11.70;99.90;;;;;;4921950;29;20099;-80
2022/05/20 21:08:56;;;;;;;13.25;7.47;;;11.60;99.90;;;;;;4921855;29;20255;-80
2022/05/20 21:11:23;;;;;;;19.00;7.35;;;11.70;99.90;;;;;;4937655;29;20502;-79
2022/05/20 21:13:52;;;;;;;10.38;7.57;;;11.60;99.90;;;;;;4922142;29;20054;-79
2022/05/20 21:16:18;;;;;;;10.27;7.60;;;11.50;99.90;;;;;;4921997;29;20099;-80
2022/05/20 21:18:48;;;;;;;17.77;8.10;;;11.40;99.90;;;;;;4921743;29;20082;-79
2022/05/20 21:21:15;;;;;;;11.77;7.47;;;11.30;99.90;;;;;;4921515;29;20477;-78
2022/05/20 21:23:46;;;;;;;12.60;8.20;;;11.30;99.90;;;;;;4921225;29;20039;-80
2022/05/20 21:26:12;;;;;;;11.25;7.55;;;11.20;99.90;;;;;;4921203;29;20050;-80
2022/05/20 21:28:41;;;;;;;18.45;8.15;;;11.20;99.90;;;;;;4921035;29;20506;-78
2022/05/20 21:31:11;;;;;;;12.02;7.45;;;11.20;99.90;;;;;;4921601;29;20067;-79
2022/05/20 21:33:39;;;;;;;16.10;7.65;;;11.20;99.90;;;;;;4921898;29;20507;-78
2022/05/20 21:36:05;;;;;;;11.50;6.85;;;11.20;99.90;;;;;;4956146;23;20048;-81
2022/05/20 21:38:31;;;;;;;11.10;7.22;;;11.20;99.90;;;;;;4933047;29;20036;-81
2022/05/20 21:40:56;;;;;;;12.73;6.00;;;11.10;99.90;;;;;;4917603;29;20044;-81
2022/05/20 21:43:22;;;;;;;9.88;6.05;;;11.10;99.90;;;;;;4917705;29;20048;-81
2022/05/20 21:45:50;;;;;;;13.90;6.32;;;11.00;99.90;;;;;;4902154;29;20035;-80
2022/05/20 21:48:15;;;;;;;9.73;5.28;;;10.90;99.90;;;;;;4901323;29;20421;-81
2022/05/20 21:50:46;;;;;;;12.20;5.53;;;10.90;99.90;;;;;;4916958;29;20044;-81
2022/05/20 21:53:11;;;;;;;14.88;5.82;;;10.80;99.90;;;;;;4902549;29;20083;-81
2022/05/20 21:55:37;;;;;;;19.40;5.00;;;10.80;99.90;;;;;;4916008;29;20044;-80
2022/05/20 21:58:03;;;;;;;8.77;5.10;;;10.70;99.90;;;;;;4917001;29;20032;-81
2022/05/20 22:08:43;;;;;;;12.32;5.72;;;10.70;99.90;;;;;;4901269;29;20145;-82
2022/05/20 22:08:50;;;;;;;6.80;4.85;;;10.60;99.90;;;;;;4934483;29;20048;-80
2022/05/20 22:11:17;;;;;;;6.97;4.88;;;10.60;99.90;;;;;;4917233;29;20040;-81
2022/05/20 22:13:42;;;;;;;7.28;4.57;;;10.60;99.90;;;;;;4900638;29;20032;-80
2022/05/20 22:16:08;;;;;;;7.40;4.35;;;10.50;99.90;;;;;;4901415;29;20044;-81
2022/05/20 22:18:34;;;;;;;9.02;3.67;;;10.50;99.90;;;;;;4916845;29;20036;-80
2022/05/20 22:20:59;;;;;;;6.50;3.80;;;10.50;99.90;;;;;;4917254;29;20051;-80
2022/05/20 22:23:25;;;;;;;5.80;4.00;;;10.50;99.90;;;;;;4916416;29;20491;-81
2022/05/20 22:25:50;;;;;;;6.68;3.60;;;10.50;99.90;;;;;;4900723;29;20044;-81
2022/05/20 22:28:16;;;;;;;7.13;3.70;;;10.40;99.90;;;;;;4899961;29;20043;-80
2022/05/20 22:30:41;;;;;;;8.05;3.50;;;10.30;99.90;;;;;;4916540;29;20130;-81
2022/05/20 22:33:07;;;;;;;6.68;3.58;;;10.30;99.90;;;;;;4900478;29;20056;-81
2022/05/20 22:35:32;;;;;;;7.57;3.88;;;10.30;99.90;;;;;;4916929;29;20498;-82
2022/05/20 22:37:58;;;;;;;7.57;4.05;;;10.30;99.90;;;;;;4901056;29;20099;-81
2022/05/20 22:40:23;;;;;;;7.25;4.20;;;10.30;99.90;;;;;;4916478;29;20554;-81
2022/05/20 22:42:49;;;;;;;7.68;4.30;;;10.30;99.90;;;;;;4916243;29;20068;-81